createdAt,value
2023-04-16T00:00:05.582Z,15.73
2023-04-16T00:05:13.639Z,16.02
2023-04-16T00:10:16.113Z,16.02
2023-04-16T00:15:17.917Z,16.08
2023-04-16T00:20:20.518Z,16.75
2023-04-16T00:25:22.534Z,17.83
2023-04-16T00:30:24.286Z,16.98
2023-04-16T00:35:26.117Z,16.20
2023-04-16T00:40:29.198Z,17.15
2023-04-16T00:45:31.346Z,18.27
2023-04-16T00:50:34.047Z,17.80
2023-04-16T00:55:36.755Z,18.88
2023-04-16T01:00:38.671Z,17.13
2023-04-16T01:05:41.083Z,21.77
2023-04-16T01:10:42.980Z,20.88
2023-04-16T01:15:44.825Z,20.90
2023-04-16T01:20:48.057Z,20.98
2023-04-16T01:25:49.911Z,21.85
2023-04-16T01:30:51.860Z,21.92
2023-04-16T01:36:14.056Z,23.50
2023-04-16T01:41:15.989Z,24.48
2023-04-16T01:46:27.274Z,20.83
2023-04-16T01:51:29.117Z,23.95
2023-04-16T01:56:30.969Z,21.17
2023-04-16T02:01:32.852Z,21.77
2023-04-16T02:06:34.940Z,23.05
2023-04-16T02:11:36.972Z,21.45
2023-04-16T02:16:38.929Z,21.75
2023-04-16T02:21:55.060Z,21.17
2023-04-16T02:26:57.049Z,19.80
2023-04-16T02:31:59.830Z,22.08
2023-04-16T02:37:03.026Z,22.20
2023-04-16T02:42:04.883Z,21.23
2023-04-16T02:47:06.701Z,20.30
2023-04-16T02:52:08.480Z,21.30
2023-04-16T02:57:10.354Z,19.98
2023-04-16T03:02:12.364Z,19.75
2023-04-16T03:07:14.347Z,21.00
2023-04-16T03:12:16.256Z,21.48
2023-04-16T03:17:18.137Z,19.95
2023-04-16T03:22:20.153Z,18.98
2023-04-16T03:27:21.971Z,19.23
2023-04-16T03:32:24.057Z,20.33
2023-04-16T03:37:26.236Z,20.45
2023-04-16T03:42:28.391Z,20.73
2023-04-16T03:47:32.401Z,19.45
2023-04-16T03:52:37.431Z,18.48
2023-04-16T03:57:39.325Z,17.73
2023-04-16T04:02:45.973Z,20.48
2023-04-16T04:07:53.971Z,20.27
2023-04-16T04:12:55.816Z,19.42
2023-04-16T04:17:57.917Z,19.40
2023-04-16T04:22:59.942Z,20.13
2023-04-16T04:28:02.500Z,21.52
2023-04-16T04:33:04.521Z,24.48
2023-04-16T04:38:06.663Z,26.92
2023-04-16T04:43:09.355Z,23.70
2023-04-16T04:48:11.320Z,22.55
2023-04-16T04:53:14.964Z,22.70
2023-04-16T04:58:17.703Z,22.50
2023-04-16T05:03:21.482Z,23.67
2023-04-16T05:08:23.204Z,26.85
2023-04-16T05:13:24.786Z,26.50
2023-04-16T05:18:26.737Z,24.20
2023-04-16T05:23:28.366Z,24.70
2023-04-16T05:28:31.066Z,25.15
2023-04-16T05:33:32.733Z,23.25
2023-04-16T05:38:34.426Z,24.15
2023-04-16T05:43:36.062Z,24.70
2023-04-16T05:48:37.715Z,22.17
2023-04-16T05:53:39.356Z,22.48
2023-04-16T05:58:41.000Z,21.52
2023-04-16T06:03:42.716Z,21.88
2023-04-16T06:08:44.392Z,21.83
2023-04-16T06:13:46.035Z,22.58
2023-04-16T06:18:47.774Z,23.73
2023-04-16T06:23:49.455Z,21.30
2023-04-16T06:28:51.132Z,22.33
2023-04-16T06:33:52.721Z,22.30
2023-04-16T06:38:54.341Z,20.92
2023-04-16T06:43:56.028Z,20.73
2023-04-16T06:48:57.615Z,21.90
2023-04-16T06:53:59.360Z,21.92
2023-04-16T06:59:01.061Z,21.55
2023-04-16T07:04:03.722Z,21.20
2023-04-16T07:09:05.660Z,20.88
2023-04-16T07:14:07.495Z,22.48
2023-04-16T07:19:09.527Z,21.55
2023-04-16T07:24:11.824Z,22.45
2023-04-16T07:29:13.626Z,20.80
2023-04-16T07:34:15.362Z,20.15
2023-04-16T07:39:17.099Z,22.63
2023-04-16T07:44:18.828Z,20.73
2023-04-16T07:49:20.641Z,22.35
2023-04-16T07:54:24.414Z,21.23
2023-04-16T07:59:26.497Z,21.65
2023-04-16T08:04:28.571Z,20.35
2023-04-16T08:09:30.406Z,20.17
2023-04-16T08:14:32.082Z,21.38
2023-04-16T08:19:33.732Z,20.15
2023-04-16T08:24:35.411Z,21.55
2023-04-16T08:29:37.049Z,20.38
2023-04-16T08:34:38.684Z,21.63
2023-04-16T08:39:40.520Z,19.73
2023-04-16T08:44:49.014Z,20.90
2023-04-16T08:49:57.924Z,21.58
2023-04-16T08:55:14.348Z,22.73
2023-04-16T09:00:16.850Z,23.42
2023-04-16T09:05:20.747Z,21.75
2023-04-16T09:10:23.173Z,20.83
2023-04-16T09:15:25.820Z,20.38
2023-04-16T09:20:27.471Z,20.75
2023-04-16T09:25:33.770Z,20.77
2023-04-16T09:30:37.153Z,20.95
2023-04-16T09:35:52.767Z,20.92
2023-04-16T09:41:08.209Z,20.88
2023-04-16T09:46:12.929Z,19.77
2023-04-16T09:51:14.610Z,19.67
2023-04-16T09:56:16.572Z,19.95
2023-04-16T10:01:18.314Z,19.73
2023-04-16T10:06:22.173Z,21.30
2023-04-16T10:11:24.551Z,20.50
2023-04-16T10:16:26.775Z,19.83
2023-04-16T10:21:34.129Z,20.52
2023-04-16T10:26:36.584Z,20.13
2023-04-16T10:31:39.676Z,20.10
2023-04-16T10:36:42.059Z,20.65
2023-04-16T10:41:43.738Z,20.17
2023-04-16T10:46:50.530Z,19.40
2023-04-16T10:52:02.346Z,18.67
2023-04-16T10:57:08.584Z,21.00
2023-04-16T11:02:16.340Z,20.70
2023-04-16T11:07:20.479Z,21.40
2023-04-16T11:12:24.655Z,21.48
2023-04-16T11:17:43.337Z,19.35
2023-04-16T11:22:47.840Z,19.70
2023-04-16T11:27:50.595Z,19.85
2023-04-16T11:32:52.314Z,19.27
2023-04-16T11:37:58.021Z,20.13
2023-04-16T11:43:16.802Z,19.23
2023-04-16T11:48:18.399Z,20.80
2023-04-16T11:53:20.066Z,19.90
2023-04-16T11:58:23.368Z,20.65
2023-04-16T12:03:44.249Z,20.65
2023-04-16T12:08:46.135Z,21.20
2023-04-16T12:14:07.081Z,20.58
2023-04-16T12:19:12.510Z,20.83
2023-04-16T12:24:16.765Z,20.70
2023-04-16T12:29:23.923Z,20.70
2023-04-16T12:34:29.099Z,20.67
2023-04-16T12:39:48.143Z,20.05
2023-04-16T12:44:50.003Z,19.52
2023-04-16T12:49:51.617Z,19.80
2023-04-16T12:54:53.469Z,21.13
2023-04-16T12:59:58.967Z,19.95
2023-04-16T13:05:00.662Z,21.10
2023-04-16T13:10:02.762Z,20.95
2023-04-16T13:15:05.171Z,19.75
2023-04-16T13:20:07.651Z,20.48
2023-04-16T13:25:09.873Z,19.58
2023-04-16T13:30:11.882Z,19.95
2023-04-16T13:35:13.546Z,20.25
2023-04-16T13:40:15.259Z,19.20
2023-04-16T13:45:17.027Z,19.45
2023-04-16T13:50:18.782Z,20.02
2023-04-16T13:55:20.485Z,18.75
2023-04-16T14:00:22.296Z,19.25
2023-04-16T14:05:26.441Z,18.55
2023-04-16T14:10:29.107Z,19.10
2023-04-16T14:15:30.850Z,18.67
2023-04-16T14:20:33.221Z,18.65
2023-04-16T14:25:35.289Z,19.00
2023-04-16T14:30:36.936Z,18.13
2023-04-16T14:35:38.594Z,18.05
2023-04-16T14:40:40.240Z,17.38
2023-04-16T14:45:41.922Z,16.70
2023-04-16T14:50:44.284Z,17.15
2023-04-16T14:55:45.942Z,17.90
2023-04-16T15:00:50.020Z,18.15
2023-04-16T15:05:55.757Z,16.98
2023-04-16T15:10:57.549Z,16.42
2023-04-16T15:16:03.042Z,16.90
2023-04-16T15:21:04.694Z,15.80
2023-04-16T15:26:06.643Z,15.75
2023-04-16T15:31:08.665Z,15.43
2023-04-16T15:36:11.346Z,14.65
2023-04-16T15:41:13.074Z,14.88
2023-04-16T15:46:15.090Z,15.35
2023-04-16T15:51:16.865Z,15.20
2023-04-16T15:56:19.767Z,15.50
2023-04-16T16:01:22.325Z,15.10
2023-04-16T16:06:24.339Z,14.00
2023-04-16T16:11:26.374Z,15.00
2023-04-16T16:16:28.557Z,14.27
2023-04-16T16:21:33.243Z,14.10
2023-04-16T16:26:34.940Z,14.07
2023-04-16T16:31:36.641Z,13.88
2023-04-16T16:36:38.258Z,12.65
2023-04-16T16:41:42.092Z,12.52
2023-04-16T16:46:43.784Z,12.30
2023-04-16T16:51:46.793Z,10.82
2023-04-16T16:56:48.441Z,11.57
2023-04-16T17:07:19.654Z,11.38
2023-04-16T17:12:23.317Z,11.43
2023-04-16T17:17:26.868Z,11.70
2023-04-16T17:22:28.750Z,12.82
2023-04-16T17:27:34.447Z,11.20
2023-04-16T17:32:36.570Z,11.82
2023-04-16T17:37:38.551Z,11.05
2023-04-16T17:42:40.540Z,11.65
2023-04-16T17:47:42.553Z,10.55
2023-04-16T17:52:44.728Z,10.57
2023-04-16T17:57:46.646Z,10.25
2023-04-16T18:02:48.614Z,10.82
2023-04-16T18:07:50.698Z,9.00
2023-04-16T18:12:52.831Z,9.32
2023-04-16T18:17:54.805Z,10.48
2023-04-16T18:22:56.861Z,10.80
2023-04-16T18:27:59.192Z,11.50
2023-04-16T18:33:26.241Z,12.73
2023-04-16T18:38:23.267Z,12.32
2023-04-16T18:43:25.561Z,13.95
2023-04-16T18:48:27.578Z,13.65
2023-04-16T18:53:29.696Z,13.18
2023-04-16T18:58:31.632Z,13.70
2023-04-16T19:03:33.573Z,13.63
2023-04-16T19:08:35.609Z,13.07
2023-04-16T19:13:38.722Z,15.00
2023-04-16T19:18:40.629Z,14.25
2023-04-16T19:23:42.998Z,14.57
2023-04-16T19:28:45.767Z,14.50
2023-04-16T19:33:47.691Z,14.15
2023-04-16T19:38:50.273Z,14.38
2023-04-16T19:43:54.964Z,14.07
2023-04-16T19:48:57.052Z,15.52
2023-04-16T19:53:59.136Z,16.40
2023-04-16T19:59:02.137Z,14.60
2023-04-16T20:04:04.326Z,15.52
2023-04-16T20:09:06.188Z,15.18
2023-04-16T20:14:07.990Z,15.10
2023-04-16T20:19:10.209Z,15.35
2023-04-16T20:24:12.572Z,15.30
2023-04-16T20:29:14.857Z,15.23
2023-04-16T20:34:16.733Z,15.20
2023-04-16T20:39:20.441Z,13.75
2023-04-16T20:44:26.396Z,15.93
2023-04-16T20:49:28.292Z,15.80
2023-04-16T20:54:31.090Z,15.25
2023-04-16T20:59:32.936Z,15.52
2023-04-16T21:04:35.003Z,14.27
2023-04-16T21:09:37.265Z,19.40
2023-04-16T21:14:39.123Z,15.30
2023-04-16T21:19:41.093Z,13.57
2023-04-16T21:24:42.933Z,13.90
2023-04-16T21:29:44.763Z,14.60
2023-04-16T21:34:46.595Z,14.45
2023-04-16T21:39:48.455Z,15.50
2023-04-16T21:44:50.263Z,14.40
2023-04-16T21:49:52.085Z,14.52
2023-04-16T21:54:53.966Z,14.13
2023-04-16T21:59:55.764Z,15.25
2023-04-16T22:04:57.636Z,16.27
2023-04-16T22:09:59.526Z,17.92
2023-04-16T22:15:03.172Z,18.35
2023-04-16T22:20:07.055Z,17.95
2023-04-16T22:25:09.822Z,18.08
2023-04-16T22:30:13.414Z,17.23
2023-04-16T22:35:15.572Z,19.70
2023-04-16T22:40:18.245Z,18.35
2023-04-16T22:45:20.106Z,18.40
2023-04-16T22:50:23.246Z,17.48
2023-04-16T22:55:25.098Z,17.10
2023-04-16T23:00:27.414Z,18.48
2023-04-16T23:05:30.532Z,16.80
2023-04-16T23:10:32.592Z,15.50
2023-04-16T23:15:34.631Z,16.25
2023-04-16T23:20:36.476Z,16.25
2023-04-16T23:25:41.242Z,16.35
2023-04-16T23:30:43.059Z,14.32
2023-04-16T23:35:46.232Z,16.00
2023-04-16T23:40:48.069Z,14.57
2023-04-16T23:45:49.981Z,15.23
2023-04-16T23:50:53.876Z,15.57
2023-04-16T23:55:55.646Z,15.68
